Time;durP1;ratioP1;P1;durP2;ratioP2;P2;SDS_P1;SDS_P2;PMS_P1;PMS_P2;Temp;Humidity;BMP_temperature;BMP_pressure;BME280_temperature;BME280_humidity;BME280_pressure;Samples;Min_cycle;Max_cycle;Signal;HPM_P1;HPM_P2
2022/06/03 03:01:12;;;;;;;0.90;0.63;;;19.00;71.30;;;;;;5900614;23;20576;-70
2022/06/03 03:04:01;;;;;;;0.70;0.60;;;19.00;71.30;;;;;;4976991;28;20431;-71
2022/06/03 03:07:02;;;;;;;0.70;0.60;;;19.00;71.10;;;;;;4976884;28;20461;-70
2022/06/03 03:09:55;;;;;;;0.70;0.67;;;19.00;71.30;;;;;;4959962;28;20445;-71
2022/06/03 03:12:50;;;;;;;0.70;0.60;;;19.00;71.40;;;;;;4976723;28;20469;-71
2022/06/03 03:18:10;;;;;;;0.70;0.60;;;19.00;71.40;;;;;;4978468;23;21000;-69
2022/06/03 03:21:07;;;;;;;0.70;0.60;;;19.00;71.40;;;;;;4956895;28;20505;-70
2022/06/03 03:24:11;;;;;;;0.70;0.60;;;19.00;71.40;;;;;;4957261;29;20494;-69
2022/06/03 03:26:53;;;;;;;0.70;0.60;;;19.00;71.40;;;;;;4950316;28;20474;-69
2022/06/03 03:29:39;;;;;;;0.70;0.70;;;19.00;71.30;;;;;;4956887;29;20989;-70
2022/06/03 03:32:19;;;;;;;0.70;0.67;;;18.90;71.70;;;;;;4956872;29;20973;-72
2022/06/03 03:35:19;;;;;;;0.73;0.73;;;18.90;71.80;;;;;;4957106;29;20427;-70
2022/06/03 03:38:31;;;;;;;0.70;0.70;;;18.90;71.70;;;;;;4957029;29;20839;-72
2022/06/03 03:41:33;;;;;;;0.70;0.70;;;18.80;71.90;;;;;;4956987;28;20458;-71
2022/06/03 03:44:46;;;;;;;0.67;0.60;;;18.80;71.90;;;;;;4948454;28;20516;-71
2022/06/03 03:47:40;;;;;;;0.70;0.60;;;18.80;71.90;;;;;;4946349;29;20474;-70
2022/06/03 03:50:46;;;;;;;3.73;0.80;;;18.80;72.00;;;;;;4956836;29;20491;-70
2022/06/03 03:53:48;;;;;;;0.90;0.70;;;18.80;72.10;;;;;;4956883;29;20435;-70
2022/06/03 03:56:56;;;;;;;0.70;0.70;;;18.80;71.80;;;;;;4956099;28;20515;-72
2022/06/03 04:00:07;;;;;;;0.70;0.70;;;18.80;71.90;;;;;;4956248;28;20816;-72
2022/06/03 04:03:01;;;;;;;0.70;0.70;;;18.80;72.00;;;;;;4956724;29;20431;-72
2022/06/03 04:06:17;;;;;;;0.80;0.80;;;18.80;72.10;;;;;;4956553;28;20431;-72
2022/06/03 04:09:14;;;;;;;0.70;0.70;;;18.80;71.80;;;;;;4956467;29;20490;-71
2022/06/03 04:12:00;;;;;;;0.67;0.60;;;18.90;71.90;;;;;;4956416;29;20442;-71
2022/06/03 04:15:02;;;;;;;0.70;0.70;;;18.90;71.90;;;;;;4956414;29;20427;-72
2022/06/03 04:17:58;;;;;;;0.70;0.63;;;18.90;71.90;;;;;;4955965;29;20540;-72
2022/06/03 04:21:03;;;;;;;0.80;0.80;;;19.00;71.60;;;;;;4956331;29;20522;-71
2022/06/03 04:24:21;;;;;;;0.70;0.70;;;19.00;71.60;;;;;;4956329;28;20463;-71
2022/06/03 04:27:16;;;;;;;0.70;0.70;;;19.00;71.80;;;;;;4955738;29;20986;-71
2022/06/03 04:30:19;;;;;;;0.70;0.70;;;19.00;71.70;;;;;;4955850;29;21017;-72
2022/06/03 04:33:28;;;;;;;0.80;0.80;;;19.00;71.60;;;;;;4955876;29;20902;-72
2022/06/03 04:36:34;;;;;;;0.77;0.77;;;19.00;71.80;;;;;;4955603;29;20990;-72
2022/06/03 04:39:42;;;;;;;0.73;0.67;;;19.10;71.50;;;;;;4955980;28;20506;-72
2022/06/03 04:42:57;;;;;;;1.00;0.70;;;19.10;71.50;;;;;;4975980;29;20435;-71
2022/06/03 04:46:08;;;;;;;0.80;0.77;;;19.10;71.50;;;;;;4968079;29;20440;-71
2022/06/03 04:49:20;;;;;;;0.80;0.77;;;19.30;71.00;;;;;;4959350;29;20486;-72
2022/06/03 04:52:34;;;;;;;0.73;0.73;;;19.40;70.70;;;;;;4958078;29;20462;-72
2022/06/03 04:55:41;;;;;;;0.70;0.70;;;19.60;70.20;;;;;;4957278;28;20834;-71
2022/06/03 04:58:51;;;;;;;0.80;0.73;;;19.80;69.60;;;;;;4957207;29;20929;-71
2022/06/03 05:01:54;;;;;;;0.80;0.80;;;20.00;69.30;;;;;;4956592;29;20443;-71
2022/06/03 05:05:10;;;;;;;0.80;0.80;;;20.00;68.90;;;;;;4956544;29;20936;-71
2022/06/03 05:08:08;;;;;;;0.70;0.70;;;20.20;68.70;;;;;;4956358;28;20518;-71
2022/06/03 05:11:14;;;;;;;0.70;0.67;;;20.30;68.50;;;;;;4956192;29;20439;-71
2022/06/03 05:14:29;;;;;;;0.70;0.70;;;20.30;68.30;;;;;;4956296;28;20494;-72
2022/06/03 05:17:23;;;;;;;0.80;0.80;;;19.90;69.60;;;;;;4955770;28;20491;-70
2022/06/03 05:20:17;;;;;;;0.80;0.80;;;19.80;70.30;;;;;;4956268;28;20439;-71
2022/06/03 05:23:26;;;;;;;0.83;0.70;;;20.10;70.00;;;;;;4955731;29;20439;-71
2022/06/03 05:26:23;;;;;;;0.70;0.70;;;20.20;69.80;;;;;;4901407;28;20473;-72
2022/06/03 05:29:23;;;;;;;0.83;0.83;;;20.10;69.90;;;;;;4955750;29;20427;-71
2022/06/03 05:32:19;;;;;;;0.90;0.90;;;20.10;70.00;;;;;;4955351;29;20849;-71
2022/06/03 05:35:20;;;;;;;0.80;0.80;;;20.30;70.00;;;;;;4955713;29;20431;-71
2022/06/03 05:38:29;;;;;;;0.80;0.70;;;20.20;69.90;;;;;;4954812;28;20487;-71
2022/06/03 05:44:18;;;;;;;0.80;0.80;;;20.30;70.60;;;;;;4955200;29;20422;-72
2022/06/03 05:46:58;;;;;;;0.70;0.70;;;20.60;70.40;;;;;;4955137;29;20466;-71
2022/06/03 05:49:36;;;;;;;0.80;0.80;;;20.70;70.00;;;;;;4955388;29;20435;-72
2022/06/03 05:52:31;;;;;;;0.80;0.80;;;20.70;70.10;;;;;;4955303;29;20431;-72
2022/06/03 05:55:17;;;;;;;1.53;0.80;;;21.10;69.80;;;;;;4955162;29;20435;-71
2022/06/03 05:58:02;;;;;;;0.70;0.70;;;21.00;69.70;;;;;;4954989;29;20486;-72
2022/06/03 06:00:44;;;;;;;0.70;0.70;;;21.30;69.20;;;;;;4955135;29;20435;-72
2022/06/03 06:03:30;;;;;;;0.70;0.70;;;21.40;68.40;;;;;;4955061;29;20439;-72
2022/06/03 06:06:14;;;;;;;0.80;0.70;;;21.50;68.70;;;;;;4954976;29;20479;-72
2022/06/03 06:08:51;;;;;;;0.80;0.80;;;21.40;68.50;;;;;;4955112;29;20435;-72
2022/06/03 06:11:28;;;;;;;0.80;0.80;;;21.30;69.30;;;;;;4955008;29;20481;-72
2022/06/03 06:14:21;;;;;;;0.90;0.73;;;21.70;68.00;;;;;;4955022;29;20489;-71
2022/06/03 06:16:47;;;;;;;0.80;0.80;;;21.90;68.80;;;;;;4952674;29;20529;-72
2022/06/03 06:19:27;;;;;;;0.90;0.70;;;21.60;68.70;;;;;;4954994;29;20509;-71
2022/06/03 06:22:17;;;;;;;0.70;0.70;;;21.40;69.00;;;;;;4957679;29;20490;-71
2022/06/03 06:24:52;;;;;;;0.90;0.80;;;21.00;70.50;;;;;;4958392;28;20850;-71
2022/06/03 06:28:06;;;;;;;0.80;0.70;;;21.10;70.10;;;;;;4958069;29;20880;-72
2022/06/03 06:30:55;;;;;;;0.70;0.70;;;21.30;70.30;;;;;;4899084;29;20573;-72
2022/06/03 06:33:53;;;;;;;0.70;0.70;;;21.50;68.20;;;;;;4899245;29;20458;-72
2022/06/03 06:37:08;;;;;;;0.70;0.70;;;21.60;68.10;;;;;;4946440;28;20479;-71
2022/06/03 06:39:51;;;;;;;0.70;0.70;;;21.50;68.90;;;;;;4958199;28;20439;-71
2022/06/03 06:42:33;;;;;;;0.80;0.80;;;21.80;68.50;;;;;;4958165;29;20498;-72
2022/06/03 06:45:14;;;;;;;0.70;0.60;;;21.90;67.70;;;;;;4958053;29;20431;-72
2022/06/03 06:47:47;;;;;;;0.70;0.60;;;22.20;68.10;;;;;;4957704;29;20892;-72
2022/06/03 06:50:21;;;;;;;0.70;0.70;;;22.70;68.00;;;;;;4958044;29;20436;-71
2022/06/03 06:52:54;;;;;;;0.70;0.60;;;22.80;66.30;;;;;;4957928;29;20438;-72
2022/06/03 06:55:33;;;;;;;1.20;0.70;;;23.00;65.50;;;;;;4957824;28;20514;-72
2022/06/03 06:58:02;;;;;;;0.83;0.70;;;23.10;66.40;;;;;;4957944;29;20470;-72
2022/06/03 07:00:33;;;;;;;0.80;0.80;;;23.20;66.00;;;;;;4957404;29;20871;-72
2022/06/03 07:03:03;;;;;;;0.80;0.80;;;23.20;65.40;;;;;;4957781;29;20534;-68
2022/06/03 07:05:36;;;;;;;0.70;0.63;;;23.30;65.00;;;;;;4957733;29;20443;-73
2022/06/03 07:08:11;;;;;;;0.70;0.60;;;23.40;64.30;;;;;;4957419;29;20969;-71
2022/06/03 07:10:48;;;;;;;0.70;0.70;;;23.50;64.30;;;;;;4957580;29;20493;-71
2022/06/03 07:13:20;;;;;;;0.70;0.60;;;23.70;64.30;;;;;;4957494;29;20439;-72
2022/06/03 07:16:08;;;;;;;0.80;0.80;;;23.80;63.90;;;;;;4957318;28;20483;-72
2022/06/03 07:21:40;;;;;;;1.07;0.67;;;24.30;64.30;;;;;;4957437;29;20911;-71
2022/06/03 07:24:13;;;;;;;1.00;0.70;;;24.60;63.10;;;;;;4957395;29;20431;-72
2022/06/03 07:26:45;;;;;;;0.70;0.70;;;24.20;63.00;;;;;;4957244;29;20583;-72
2022/06/03 07:29:16;;;;;;;0.80;0.80;;;23.70;64.20;;;;;;4957281;29;20431;-72
2022/06/03 07:31:48;;;;;;;0.80;0.70;;;23.50;65.50;;;;;;4957118;28;20482;-72
2022/06/03 07:34:20;;;;;;;0.80;0.80;;;23.90;65.70;;;;;;4957284;29;20449;-71
2022/06/03 07:36:54;;;;;;;0.97;0.90;;;24.00;63.80;;;;;;4956998;29;20487;-71
2022/06/03 07:39:51;;;;;;;1.20;0.70;;;24.10;65.00;;;;;;4956785;29;20867;-71
2022/06/03 07:42:29;;;;;;;0.80;0.70;;;23.90;65.70;;;;;;4957002;29;20454;-71
2022/06/03 07:45:06;;;;;;;0.70;0.60;;;24.00;64.80;;;;;;4956972;29;20435;-71
2022/06/03 07:47:34;;;;;;;0.70;0.60;;;24.00;65.30;;;;;;4956612;29;20974;-71
2022/06/03 07:50:03;;;;;;;0.80;0.80;;;24.20;64.40;;;;;;4956829;29;20452;-72
2022/06/03 07:52:39;;;;;;;0.70;0.70;;;24.10;64.40;;;;;;4956746;29;20487;-71
2022/06/03 07:55:11;;;;;;;0.70;0.70;;;24.50;64.70;;;;;;4956722;29;20497;-72
2022/06/03 07:57:39;;;;;;;0.70;0.67;;;24.40;64.20;;;;;;4956572;29;20487;-71
2022/06/03 08:00:14;;;;;;;0.70;0.60;;;24.50;65.60;;;;;;4956579;29;20793;-72
2022/06/03 08:02:41;;;;;;;0.70;0.70;;;24.50;64.90;;;;;;4956338;29;20929;-71
2022/06/03 08:05:13;;;;;;;0.70;0.60;;;24.40;63.80;;;;;;4956545;29;20462;-71
2022/06/03 08:13:15;;;;;;;0.70;0.70;;;24.80;64.20;;;;;;4956433;29;21023;-71
2022/06/03 08:15:51;;;;;;;0.80;0.70;;;24.80;63.10;;;;;;4956086;29;20530;-73
2022/06/03 08:18:20;;;;;;;0.83;0.83;;;24.90;62.80;;;;;;4956285;29;20471;-71
2022/06/03 08:20:49;;;;;;;0.73;0.70;;;25.00;63.20;;;;;;4956184;29;20451;-73
2022/06/03 08:23:18;;;;;;;0.90;0.70;;;24.90;63.40;;;;;;4956169;29;20451;-72
2022/06/03 08:25:47;;;;;;;1.70;0.80;;;25.30;64.20;;;;;;4956051;29;20478;-72
2022/06/03 08:28:21;;;;;;;0.70;0.70;;;25.50;63.30;;;;;;4956139;28;20451;-73
2022/06/03 08:30:50;;;;;;;0.70;0.70;;;25.40;62.90;;;;;;4956316;29;20527;-72
2022/06/03 08:33:26;;;;;;;0.80;0.80;;;25.60;63.10;;;;;;4956022;28;20514;-71
2022/06/03 08:35:52;;;;;;;1.00;0.70;;;25.80;62.30;;;;;;4956530;29;20471;-72
2022/06/03 08:38:24;;;;;;;0.80;0.70;;;26.10;60.50;;;;;;4958893;29;20495;-72
2022/06/03 08:41:01;;;;;;;2.40;0.90;;;26.40;61.20;;;;;;4959065;29;20849;-72
2022/06/03 08:43:32;;;;;;;0.70;0.70;;;26.40;61.30;;;;;;4957776;28;20431;-71
2022/06/03 08:46:07;;;;;;;1.23;0.87;;;26.70;60.40;;;;;;4955851;29;20547;-73
2022/06/03 08:48:39;;;;;;;1.00;0.73;;;26.90;60.00;;;;;;4955845;29;20435;-72
2022/06/03 08:51:12;;;;;;;0.80;0.80;;;27.20;58.80;;;;;;4955826;29;20431;-73
2022/06/03 08:53:45;;;;;;;1.10;0.80;;;27.30;58.40;;;;;;4955760;29;20450;-73
2022/06/03 08:56:15;;;;;;;0.70;0.70;;;26.60;59.30;;;;;;4955674;29;20471;-72
2022/06/03 08:58:50;;;;;;;0.80;0.73;;;25.90;61.00;;;;;;4955775;29;20545;-73
2022/06/03 09:01:23;;;;;;;1.23;0.80;;;25.70;62.20;;;;;;4955713;29;20443;-72
2022/06/03 09:03:58;;;;;;;0.70;0.60;;;25.80;62.40;;;;;;4955622;29;20498;-73
2022/06/03 09:06:38;;;;;;;0.80;0.80;;;25.90;62.00;;;;;;4955554;29;20474;-73
2022/06/03 09:09:11;;;;;;;0.80;0.73;;;26.10;61.30;;;;;;4955564;29;20484;-72
2022/06/03 09:11:44;;;;;;;1.37;0.70;;;26.40;60.30;;;;;;4955373;29;20439;-72
2022/06/03 09:14:20;;;;;;;1.00;0.70;;;26.60;60.10;;;;;;4955509;29;20424;-73
2022/06/03 09:16:50;;;;;;;0.80;0.80;;;26.50;60.70;;;;;;4986517;23;21003;-71
2022/06/03 09:19:21;;;;;;;0.80;0.77;;;26.60;60.70;;;;;;4973963;28;20899;-71
2022/06/03 09:21:51;;;;;;;1.30;0.70;;;26.60;60.60;;;;;;4974259;28;20434;-70
2022/06/03 09:24:22;;;;;;;1.90;0.80;;;26.70;59.80;;;;;;4974349;28;20541;-70
2022/06/03 09:26:53;;;;;;;0.70;0.60;;;26.80;59.20;;;;;;4974288;28;20532;-70
2022/06/03 09:29:22;;;;;;;0.70;0.60;;;26.80;58.10;;;;;;4974401;28;20517;-71
2022/06/03 09:31:51;;;;;;;0.77;0.60;;;27.00;60.10;;;;;;4974023;28;20996;-71
2022/06/03 09:34:22;;;;;;;0.90;0.70;;;27.10;58.60;;;;;;4974014;28;20874;-71
2022/06/03 09:36:49;;;;;;;0.80;0.80;;;27.20;58.30;;;;;;4974282;28;20474;-71
2022/06/03 09:39:18;;;;;;;0.70;0.60;;;27.30;58.00;;;;;;4974074;28;20481;-71
2022/06/03 09:41:53;;;;;;;0.70;0.60;;;27.40;57.80;;;;;;4974178;28;20446;-71
2022/06/03 09:44:23;;;;;;;0.70;0.70;;;27.30;58.40;;;;;;4974380;28;20492;-71
2022/06/03 09:46:58;;;;;;;0.80;0.77;;;27.50;58.20;;;;;;4973934;28;20957;-70
2022/06/03 09:49:25;;;;;;;1.33;0.80;;;27.40;58.30;;;;;;4974138;28;20433;-70
2022/06/03 09:51:59;;;;;;;0.80;0.80;;;27.30;59.40;;;;;;4973781;28;20862;-70
2022/06/03 09:54:29;;;;;;;0.70;0.60;;;27.20;59.30;;;;;;4973958;28;20989;-70
2022/06/03 09:57:05;;;;;;;1.23;0.70;;;27.00;57.90;;;;;;4977785;28;20461;-71
2022/06/03 09:59:36;;;;;;;0.80;0.70;;;27.00;59.80;;;;;;4977545;28;20928;-71
2022/06/03 10:02:05;;;;;;;0.70;0.67;;;27.30;58.00;;;;;;4977793;28;20426;-71
2022/06/03 10:04:31;;;;;;;0.70;0.60;;;27.50;60.20;;;;;;4977741;28;20449;-71
2022/06/03 10:07:00;;;;;;;0.80;0.70;;;27.80;57.60;;;;;;4977332;28;21056;-70
2022/06/03 10:17:49;;;;;;;0.70;0.70;;;28.10;56.90;;;;;;4977131;28;21091;-71
2022/06/03 10:20:18;;;;;;;0.70;0.70;;;28.40;57.00;;;;;;4977489;28;20446;-71
2022/06/03 10:22:45;;;;;;;0.70;0.60;;;28.50;55.60;;;;;;4977069;28;20872;-71
2022/06/03 10:25:12;;;;;;;0.70;0.60;;;28.70;55.40;;;;;;4977337;28;20508;-70
2022/06/03 10:27:39;;;;;;;0.70;0.63;;;28.50;54.70;;;;;;4976961;28;20981;-70
2022/06/03 10:30:09;;;;;;;0.70;0.60;;;28.60;53.90;;;;;;4976971;28;20992;-70
2022/06/03 10:32:36;;;;;;;0.77;0.73;;;28.60;54.70;;;;;;4977239;28;20532;-71
2022/06/03 10:35:12;;;;;;;0.70;0.60;;;28.40;54.10;;;;;;4976971;28;20508;-70
2022/06/03 10:37:47;;;;;;;1.33;0.60;;;28.40;54.50;;;;;;4977059;28;20485;-70
2022/06/03 10:40:14;;;;;;;0.70;0.60;;;28.70;53.20;;;;;;4976760;28;20928;-71
2022/06/03 10:42:45;;;;;;;0.60;0.50;;;28.80;54.40;;;;;;4977037;28;20557;-70
2022/06/03 10:45:13;;;;;;;0.70;0.60;;;29.00;54.20;;;;;;4976956;28;20489;-71
2022/06/03 10:47:43;;;;;;;0.70;0.60;;;28.90;53.60;;;;;;4976987;28;20516;-71
2022/06/03 10:50:14;;;;;;;0.70;0.50;;;29.10;53.90;;;;;;4976960;28;20456;-71
2022/06/03 11:01:14;;;;;;;0.70;0.60;;;29.30;51.40;;;;;;4976262;28;20422;-71
2022/06/03 11:03:42;;;;;;;0.70;0.60;;;29.30;51.70;;;;;;4976720;28;20434;-70
2022/06/03 11:06:14;;;;;;;0.70;0.60;;;29.30;50.00;;;;;;4976094;28;20470;-71
2022/06/03 11:08:53;;;;;;;0.90;0.70;;;29.10;51.30;;;;;;4976593;28;20439;-71
2022/06/03 11:11:49;;;;;;;0.60;0.60;;;28.60;52.20;;;;;;4977735;28;20500;-71
2022/06/03 11:14:25;;;;;;;0.70;0.70;;;28.70;53.10;;;;;;4934242;28;20451;-71
2022/06/03 11:16:59;;;;;;;0.60;0.50;;;28.70;53.00;;;;;;4978018;28;20536;-71
2022/06/03 11:19:29;;;;;;;0.90;0.63;;;28.60;52.50;;;;;;4977833;28;20888;-71
2022/06/03 11:22:18;;;;;;;0.90;0.70;;;28.70;52.10;;;;;;4978163;28;20438;-71
2022/06/03 11:24:51;;;;;;;0.90;0.60;;;28.40;52.50;;;;;;4977984;28;20444;-71
2022/06/03 11:27:22;;;;;;;0.80;0.60;;;28.50;52.40;;;;;;4978596;28;20477;-72
2022/06/03 11:29:51;;;;;;;0.80;0.53;;;28.40;53.00;;;;;;4977468;28;20457;-71
2022/06/03 11:32:19;;;;;;;1.03;0.70;;;28.50;53.40;;;;;;4978032;28;20457;-72
2022/06/03 11:34:54;;;;;;;0.80;0.60;;;28.60;53.20;;;;;;4978840;28;20865;-70
2022/06/03 11:37:26;;;;;;;0.73;0.60;;;28.60;52.40;;;;;;4977863;28;20926;-71
2022/06/03 11:39:59;;;;;;;0.90;0.50;;;28.70;53.10;;;;;;4977517;28;20477;-71
2022/06/03 11:42:32;;;;;;;0.70;0.70;;;28.70;52.90;;;;;;4978022;28;20461;-71
2022/06/03 11:45:04;;;;;;;0.70;0.60;;;28.80;52.60;;;;;;4977958;28;20434;-71
2022/06/03 11:47:39;;;;;;;0.70;0.60;;;28.90;51.50;;;;;;4977730;28;20466;-71
2022/06/03 11:50:08;;;;;;;0.70;0.63;;;29.00;52.10;;;;;;4978190;28;20437;-71
2022/06/03 11:52:35;;;;;;;0.80;0.70;;;29.10;52.00;;;;;;4977272;28;20445;-72
2022/06/03 11:55:02;;;;;;;0.70;0.70;;;29.20;51.10;;;;;;4978152;28;20454;-71
2022/06/03 11:57:29;;;;;;;0.60;0.57;;;29.30;52.30;;;;;;4977087;28;20524;-71
2022/06/03 12:00:00;;;;;;;0.70;0.60;;;29.20;53.10;;;;;;4977042;28;20888;-71
2022/06/03 12:02:32;;;;;;;0.70;0.60;;;29.30;52.70;;;;;;4977137;28;20499;-71
2022/06/03 12:05:05;;;;;;;0.70;0.50;;;29.10;53.00;;;;;;4976677;28;20445;-71
2022/06/03 12:07:42;;;;;;;0.70;0.60;;;29.00;52.20;;;;;;4976981;28;20474;-72
2022/06/03 12:10:15;;;;;;;0.70;0.60;;;29.10;52.30;;;;;;4977298;28;20437;-72
2022/06/03 12:15:59;;;;;;;0.70;0.60;;;29.30;53.80;;;;;;4976914;28;20916;-71
2022/06/03 12:19:01;;;;;;;0.70;0.60;;;29.40;54.20;;;;;;4977752;28;20470;-71
2022/06/03 12:21:56;;;;;;;0.70;0.60;;;29.40;54.60;;;;;;4976808;28;20497;-72
2022/06/03 12:24:46;;;;;;;0.70;0.70;;;29.40;55.30;;;;;;4975171;28;20446;-71
2022/06/03 12:27:23;;;;;;;0.70;0.63;;;29.40;55.20;;;;;;4974801;28;20990;-72
2022/06/03 12:30:18;;;;;;;0.73;0.70;;;29.40;55.10;;;;;;4975424;28;20497;-72
2022/06/03 12:32:53;;;;;;;0.70;0.60;;;29.40;54.90;;;;;;4974808;28;20437;-71
2022/06/03 12:35:55;;;;;;;0.80;0.60;;;29.20;55.00;;;;;;4975140;28;20528;-71
2022/06/03 12:38:35;;;;;;;1.20;0.70;;;29.20;55.70;;;;;;4975170;28;20465;-70
2022/06/03 12:41:05;;;;;;;0.77;0.70;;;29.20;56.00;;;;;;4975213;28;20445;-70
2022/06/03 12:43:53;;;;;;;1.27;0.90;;;28.90;55.50;;;;;;4975115;28;20904;-70
2022/06/03 12:46:36;;;;;;;0.70;0.70;;;29.00;56.10;;;;;;4974405;28;20485;-71
2022/06/03 12:49:04;;;;;;;0.90;0.77;;;28.90;55.80;;;;;;4974811;28;20438;-70
2022/06/03 12:51:33;;;;;;;0.70;0.60;;;29.00;55.30;;;;;;4974569;28;20821;-72
2022/06/03 12:54:06;;;;;;;1.77;0.80;;;29.00;55.00;;;;;;4974455;28;20821;-70
2022/06/03 12:56:43;;;;;;;0.90;0.60;;;29.00;55.40;;;;;;4974614;28;20466;-72
2022/06/03 12:59:20;;;;;;;0.70;0.60;;;28.90;55.60;;;;;;4974496;28;20482;-71
2022/06/03 13:01:51;;;;;;;0.80;0.80;;;28.90;55.30;;;;;;4974650;28;20434;-71
2022/06/03 13:05:02;;;;;;;0.70;0.60;;;29.00;55.30;;;;;;4974557;28;20489;-71
2022/06/03 13:07:35;;;;;;;0.93;0.60;;;28.90;54.50;;;;;;4928890;28;20470;-71
2022/06/03 13:10:29;;;;;;;0.80;0.77;;;28.90;55.80;;;;;;4974460;28;20497;-70
2022/06/03 13:12:58;;;;;;;0.70;0.60;;;29.10;57.30;;;;;;4974457;28;20437;-70
2022/06/03 13:15:46;;;;;;;0.77;0.73;;;29.20;57.40;;;;;;4975506;28;20541;-71
2022/06/03 13:18:18;;;;;;;0.70;0.70;;;29.40;56.70;;;;;;4973845;28;20486;-71
2022/06/03 13:20:47;;;;;;;0.80;0.70;;;29.50;56.60;;;;;;4973997;28;20898;-72
2022/06/03 13:23:33;;;;;;;0.70;0.70;;;29.50;56.40;;;;;;4974208;28;20446;-71
2022/06/03 13:26:33;;;;;;;0.83;0.60;;;29.50;55.20;;;;;;4974204;28;20533;-72
2022/06/03 13:29:04;;;;;;;0.90;0.70;;;29.50;54.40;;;;;;4973736;28;20445;-71
2022/06/03 13:32:01;;;;;;;0.80;0.73;;;29.50;54.90;;;;;;4978164;28;20434;-71
2022/06/03 13:34:44;;;;;;;1.80;0.60;;;29.40;55.70;;;;;;4978019;28;20952;-71
2022/06/03 13:37:28;;;;;;;0.70;0.67;;;29.30;55.50;;;;;;4978144;28;20520;-71
2022/06/03 13:40:19;;;;;;;0.73;0.73;;;29.20;56.00;;;;;;4978133;28;20473;-71
2022/06/03 13:43:03;;;;;;;0.80;0.80;;;29.10;56.70;;;;;;4978090;28;20434;-71
2022/06/03 13:46:01;;;;;;;0.70;0.70;;;29.00;58.10;;;;;;4978077;28;20438;-72
2022/06/03 13:48:33;;;;;;;0.70;0.60;;;28.90;59.10;;;;;;4974703;28;20465;-71
2022/06/03 13:51:33;;;;;;;2.37;0.70;;;28.80;59.50;;;;;;4977988;28;20493;-72
2022/06/03 13:54:02;;;;;;;0.70;0.70;;;28.60;60.50;;;;;;4977912;28;20481;-72
2022/06/03 13:56:31;;;;;;;1.33;0.90;;;28.40;61.20;;;;;;4977566;28;20469;-72
2022/06/03 13:59:00;;;;;;;0.70;0.60;;;28.20;61.70;;;;;;4977823;28;20574;-71
2022/06/03 14:01:31;;;;;;;0.80;0.70;;;28.10;61.90;;;;;;4977917;28;20796;-72
2022/06/03 14:04:02;;;;;;;0.90;0.80;;;28.00;62.10;;;;;;4977517;28;20802;-71
2022/06/03 14:06:34;;;;;;;0.90;0.80;;;27.90;62.40;;;;;;4977761;28;20477;-72
2022/06/03 14:09:08;;;;;;;0.73;0.73;;;27.80;63.00;;;;;;4977783;28;20434;-71
2022/06/03 14:11:39;;;;;;;1.00;0.90;;;27.70;63.20;;;;;;4977750;28;20437;-72
2022/06/03 14:14:12;;;;;;;0.70;0.70;;;27.70;63.40;;;;;;4977853;28;20489;-71
2022/06/03 14:16:44;;;;;;;0.90;0.80;;;27.60;63.10;;;;;;4977354;28;20505;-72
2022/06/03 14:19:47;;;;;;;0.70;0.70;;;27.40;63.30;;;;;;4977655;28;20528;-71
2022/06/03 14:22:24;;;;;;;0.80;0.80;;;27.30;63.50;;;;;;4898799;29;20488;-71
2022/06/03 14:25:00;;;;;;;0.70;0.70;;;27.30;63.60;;;;;;4967205;28;20945;-70
2022/06/03 14:27:34;;;;;;;0.83;0.80;;;27.30;63.70;;;;;;4977391;28;20552;-71
2022/06/03 14:30:10;;;;;;;0.70;0.70;;;27.40;63.50;;;;;;4977359;28;20426;-71
2022/06/03 14:32:44;;;;;;;0.70;0.70;;;27.40;63.50;;;;;;4977396;28;20426;-70
2022/06/03 14:35:18;;;;;;;0.80;0.80;;;27.50;63.40;;;;;;4977364;28;20430;-71
2022/06/03 14:37:49;;;;;;;0.80;0.70;;;27.60;63.60;;;;;;4977174;28;20462;-70
2022/06/03 14:40:20;;;;;;;0.70;0.70;;;27.50;63.10;;;;;;4976865;28;20841;-71
2022/06/03 14:42:49;;;;;;;1.40;0.70;;;27.60;63.10;;;;;;4976331;28;20497;-71
2022/06/03 14:45:16;;;;;;;0.80;0.77;;;27.70;62.90;;;;;;4977072;28;20469;-71
2022/06/03 14:47:47;;;;;;;0.80;0.77;;;27.90;62.90;;;;;;4976820;28;21005;-71
2022/06/03 14:50:19;;;;;;;1.20;0.97;;;28.00;62.30;;;;;;4977947;28;20493;-71
2022/06/03 14:52:50;;;;;;;0.90;0.80;;;28.20;61.70;;;;;;4977577;28;20461;-72
2022/06/03 14:55:25;;;;;;;0.70;0.60;;;28.30;60.70;;;;;;4977566;28;20458;-72
2022/06/03 14:57:58;;;;;;;1.30;0.77;;;28.50;60.90;;;;;;4977686;28;20517;-72
2022/06/03 15:00:40;;;;;;;1.40;0.80;;;28.50;60.40;;;;;;4977726;28;20524;-72
2022/06/03 15:03:19;;;;;;;0.90;0.70;;;28.50;61.20;;;;;;4977194;28;20481;-71
2022/06/03 15:05:52;;;;;;;0.70;0.60;;;28.60;60.90;;;;;;4976350;28;20902;-72
2022/06/03 15:08:22;;;;;;;0.70;0.70;;;28.60;61.20;;;;;;4976960;28;20529;-71
2022/06/03 15:10:57;;;;;;;0.80;0.60;;;28.70;61.50;;;;;;4976351;28;20446;-71
2022/06/03 15:13:27;;;;;;;0.70;0.70;;;28.80;61.20;;;;;;4976362;28;20421;-71
2022/06/03 15:15:54;;;;;;;0.70;0.70;;;29.00;61.10;;;;;;4976118;28;20980;-72
2022/06/03 15:18:27;;;;;;;0.80;0.80;;;29.00;60.30;;;;;;5017797;23;20520;-72
2022/06/03 15:21:05;;;;;;;1.23;0.80;;;28.80;60.50;;;;;;4995759;28;20887;-72
2022/06/03 15:23:33;;;;;;;0.70;0.70;;;28.80;60.30;;;;;;4996117;28;20443;-71
2022/06/03 15:26:02;;;;;;;0.70;0.70;;;28.80;60.30;;;;;;4996050;28;20563;-71
2022/06/03 15:28:29;;;;;;;0.70;0.70;;;28.80;60.10;;;;;;4995947;28;20479;-71
2022/06/03 15:30:59;;;;;;;0.70;0.70;;;28.90;60.80;;;;;;4995677;28;20941;-71
2022/06/03 15:33:31;;;;;;;0.70;0.70;;;28.90;60.50;;;;;;4995889;28;20499;-71
2022/06/03 15:36:00;;;;;;;0.80;0.60;;;28.80;60.90;;;;;;4995862;28;20465;-71
2022/06/03 15:38:32;;;;;;;0.70;0.70;;;28.90;60.10;;;;;;4995771;28;20469;-71
2022/06/03 15:41:01;;;;;;;0.83;0.83;;;28.80;59.70;;;;;;4995681;28;20489;-71
2022/06/03 15:43:38;;;;;;;0.73;0.73;;;28.90;58.70;;;;;;4995682;28;20481;-71
2022/06/03 15:46:05;;;;;;;0.70;0.60;;;28.90;58.60;;;;;;4995685;28;20441;-71
2022/06/03 15:48:33;;;;;;;0.80;0.70;;;29.00;59.30;;;;;;4995554;28;20556;-71
2022/06/03 15:51:05;;;;;;;0.83;0.80;;;29.00;58.10;;;;;;4995545;28;20870;-71
2022/06/03 15:53:34;;;;;;;0.90;0.77;;;29.00;58.40;;;;;;4995518;28;20433;-71
2022/06/03 15:56:18;;;;;;;0.70;0.70;;;29.00;58.40;;;;;;4995951;28;20804;-71
2022/06/03 15:58:54;;;;;;;0.70;0.67;;;29.00;58.10;;;;;;4995386;28;20459;-71
2022/06/03 16:01:31;;;;;;;0.80;0.80;;;29.00;58.60;;;;;;4995257;28;20433;-72
2022/06/03 16:04:09;;;;;;;0.70;0.70;;;29.00;58.20;;;;;;4995795;28;20448;-71
2022/06/03 16:06:41;;;;;;;0.70;0.70;;;29.10;58.40;;;;;;4995041;28;20854;-71
2022/06/03 16:09:22;;;;;;;0.70;0.70;;;29.10;58.30;;;;;;4994979;28;20850;-72
2022/06/03 16:12:01;;;;;;;0.80;0.80;;;29.10;58.50;;;;;;4995192;28;20425;-71
2022/06/03 16:14:39;;;;;;;0.80;0.70;;;28.90;59.00;;;;;;4994837;28;20967;-70
2022/06/03 16:17:24;;;;;;;1.00;0.80;;;28.90;58.60;;;;;;4994540;28;20980;-71
2022/06/03 16:20:02;;;;;;;0.90;0.70;;;28.70;59.40;;;;;;4995938;28;20523;-75
2022/06/03 16:22:50;;;;;;;1.00;0.90;;;28.80;59.50;;;;;;4997905;28;20452;-72
2022/06/03 16:25:22;;;;;;;1.30;0.80;;;28.90;58.80;;;;;;4992079;28;20457;-71
2022/06/03 16:28:04;;;;;;;1.47;0.77;;;28.80;58.50;;;;;;4998693;28;20474;-72
2022/06/03 16:30:40;;;;;;;0.80;0.70;;;28.70;58.90;;;;;;4997862;28;20433;-71
2022/06/03 16:33:23;;;;;;;0.97;0.60;;;28.30;59.90;;;;;;4999340;28;20433;-71
2022/06/03 16:35:58;;;;;;;0.80;0.70;;;28.10;60.20;;;;;;4998788;28;20440;-71
2022/06/03 16:38:32;;;;;;;0.80;0.80;;;27.70;60.80;;;;;;4998934;28;20460;-71
2022/06/03 16:41:06;;;;;;;0.80;0.80;;;27.40;61.70;;;;;;4997665;28;20477;-72
2022/06/03 16:43:43;;;;;;;0.70;0.63;;;27.50;61.70;;;;;;4994703;28;20500;-71
2022/06/03 16:46:23;;;;;;;0.90;0.70;;;27.60;62.10;;;;;;4994280;28;20938;-72
2022/06/03 16:49:06;;;;;;;0.70;0.60;;;27.70;61.70;;;;;;4994486;28;20484;-72
2022/06/03 16:51:37;;;;;;;0.70;0.67;;;27.60;62.30;;;;;;4994444;28;20429;-71
2022/06/03 16:54:06;;;;;;;0.70;0.70;;;27.60;62.30;;;;;;4994526;28;20438;-71
2022/06/03 16:56:36;;;;;;;1.10;1.00;;;27.70;62.10;;;;;;4994363;28;20452;-71
2022/06/03 16:59:13;;;;;;;0.70;0.70;;;27.70;61.60;;;;;;4994050;28;20885;-71
2022/06/03 17:01:45;;;;;;;0.80;0.80;;;27.40;62.30;;;;;;4994217;28;20971;-71
2022/06/03 17:04:12;;;;;;;0.73;0.73;;;27.30;62.30;;;;;;4995119;28;20425;-71
2022/06/03 17:06:50;;;;;;;0.70;0.60;;;27.00;62.60;;;;;;4994635;28;20511;-71
2022/06/03 17:09:17;;;;;;;0.70;0.70;;;27.20;62.50;;;;;;4994552;28;20567;-72
2022/06/03 17:11:44;;;;;;;0.90;0.90;;;27.30;62.50;;;;;;4993950;28;20498;-72
2022/06/03 17:14:15;;;;;;;1.90;0.83;;;26.90;64.00;;;;;;4994134;28;20445;-71
2022/06/03 17:16:44;;;;;;;0.70;0.60;;;26.90;65.10;;;;;;4994156;28;20480;-71
2022/06/03 17:19:12;;;;;;;0.80;0.70;;;27.00;65.00;;;;;;4994209;28;20437;-71
2022/06/03 17:21:50;;;;;;;0.87;0.70;;;26.70;65.60;;;;;;4996752;28;20542;-71
2022/06/03 17:24:31;;;;;;;1.27;0.70;;;26.50;64.70;;;;;;4998218;28;20524;-71
2022/06/03 17:27:13;;;;;;;1.43;0.70;;;26.40;64.50;;;;;;4996132;28;20477;-71